createdAt,value
2023-04-27T00:01:17.196Z,2.40
2023-04-27T00:03:45.939Z,2.70
2023-04-27T00:06:13.942Z,3.13
2023-04-27T00:08:42.044Z,2.95
2023-04-27T00:11:09.814Z,2.60
2023-04-27T00:13:38.989Z,2.55
2023-04-27T00:16:07.359Z,2.30
2023-04-27T00:18:35.260Z,2.40
2023-04-27T00:21:02.979Z,2.30
2023-04-27T00:23:30.686Z,2.17
2023-04-27T00:25:58.404Z,2.40
2023-04-27T00:28:26.236Z,2.20
2023-04-27T00:30:55.454Z,2.78
2023-04-27T00:33:23.153Z,2.60
2023-04-27T00:35:50.988Z,2.45
2023-04-27T00:38:18.749Z,2.95
2023-04-27T00:40:46.512Z,2.50
2023-04-27T00:43:14.215Z,2.75
2023-04-27T00:45:43.831Z,2.33
2023-04-27T00:48:13.523Z,2.58
2023-04-27T00:50:41.297Z,3.08
2023-04-27T00:53:09.427Z,2.95
2023-04-27T00:55:37.346Z,2.70
2023-04-27T00:58:05.140Z,2.38
2023-04-27T01:00:33.090Z,2.70
2023-04-27T01:03:01.490Z,2.13
2023-04-27T01:05:32.564Z,2.70
2023-04-27T01:08:00.500Z,2.25
2023-04-27T01:10:28.522Z,2.47
2023-04-27T01:12:57.513Z,2.95
2023-04-27T01:15:25.185Z,2.55
2023-04-27T01:17:58.973Z,2.33
2023-04-27T01:20:30.140Z,2.30
2023-04-27T01:23:00.524Z,2.45
2023-04-27T01:25:29.592Z,2.90
2023-04-27T01:27:57.368Z,2.83
2023-04-27T01:30:25.095Z,2.80
2023-04-27T01:32:52.866Z,2.47
2023-04-27T01:35:20.868Z,3.10
2023-04-27T01:37:48.621Z,2.80
2023-04-27T01:40:16.686Z,2.58
2023-04-27T01:42:45.840Z,2.38
2023-04-27T01:45:13.607Z,3.05
2023-04-27T01:47:41.462Z,2.78
2023-04-27T01:50:10.050Z,2.55
2023-04-27T01:52:37.887Z,2.63
2023-04-27T01:55:06.351Z,2.50
2023-04-27T01:57:34.069Z,2.75
2023-04-27T02:00:03.198Z,3.28
2023-04-27T02:02:30.976Z,2.65
2023-04-27T02:04:58.749Z,2.10
2023-04-27T02:07:27.280Z,2.67
2023-04-27T02:09:55.457Z,3.30
2023-04-27T02:12:23.173Z,2.90
2023-04-27T02:14:51.158Z,2.25
2023-04-27T02:17:20.190Z,2.60
2023-04-27T02:19:47.916Z,2.88
2023-04-27T02:22:16.249Z,2.67
2023-04-27T02:24:44.000Z,2.33
2023-04-27T02:27:11.847Z,2.78
2023-04-27T02:29:40.018Z,3.00
2023-04-27T02:32:08.264Z,2.60
2023-04-27T02:34:37.378Z,2.08
2023-04-27T02:37:05.043Z,3.38
2023-04-27T02:39:32.719Z,2.85
2023-04-27T02:42:00.460Z,2.63
2023-04-27T02:44:28.199Z,2.67
2023-04-27T02:46:55.924Z,3.22
2023-04-27T02:49:23.669Z,2.50
2023-04-27T02:51:52.775Z,2.80
2023-04-27T02:54:20.533Z,3.08
2023-04-27T02:56:48.240Z,2.88
2023-04-27T02:59:16.186Z,2.42
2023-04-27T03:01:44.131Z,2.80
2023-04-27T03:04:14.170Z,2.90
2023-04-27T03:06:42.190Z,3.15
2023-04-27T03:09:11.509Z,3.30
2023-04-27T03:11:39.490Z,2.72
2023-04-27T03:14:07.277Z,2.72
2023-04-27T03:16:35.461Z,2.65
2023-04-27T03:19:03.817Z,2.55
2023-04-27T03:21:32.048Z,3.40
2023-04-27T03:23:59.792Z,3.55
2023-04-27T03:26:28.932Z,2.83
2023-04-27T03:28:56.657Z,3.10
2023-04-27T03:31:24.442Z,3.85
2023-04-27T03:33:52.146Z,3.15
2023-04-27T03:36:19.910Z,3.30
2023-04-27T03:38:47.567Z,2.95
2023-04-27T03:41:15.409Z,3.58
2023-04-27T03:43:44.459Z,3.35
2023-04-27T03:46:12.221Z,4.03
2023-04-27T03:48:40.128Z,3.00
2023-04-27T03:51:08.309Z,3.38
2023-04-27T03:53:36.275Z,4.85
2023-04-27T03:56:04.317Z,3.25
2023-04-27T03:58:31.992Z,3.00
2023-04-27T04:01:01.404Z,3.40
2023-04-27T04:03:29.233Z,3.30
2023-04-27T04:05:57.035Z,3.42
2023-04-27T04:08:24.719Z,3.25
2023-04-27T04:10:52.456Z,4.10
2023-04-27T04:13:20.187Z,4.22
2023-04-27T04:15:47.893Z,3.38
2023-04-27T04:18:16.913Z,3.63
2023-04-27T04:20:44.623Z,4.32
2023-04-27T04:23:12.284Z,3.28
2023-04-27T04:25:40.391Z,3.28
2023-04-27T04:28:08.264Z,3.05
2023-04-27T04:30:35.946Z,3.35
2023-04-27T04:33:03.903Z,3.50
2023-04-27T04:35:33.095Z,4.00
2023-04-27T04:38:00.823Z,3.38
2023-04-27T04:40:29.064Z,3.30
2023-04-27T04:42:56.779Z,3.58
2023-04-27T04:45:24.495Z,3.55
2023-04-27T04:47:54.404Z,3.63
2023-04-27T04:50:23.277Z,3.85
2023-04-27T04:52:52.987Z,3.30
2023-04-27T04:55:20.877Z,3.83
2023-04-27T04:57:48.584Z,3.75
2023-04-27T05:00:16.648Z,3.67
2023-04-27T05:02:44.545Z,4.45
2023-04-27T05:05:12.346Z,4.10
2023-04-27T05:07:40.828Z,3.53
2023-04-27T05:10:10.443Z,3.90
2023-04-27T05:12:38.268Z,4.07
2023-04-27T05:15:07.199Z,3.78
2023-04-27T05:17:34.927Z,3.80
2023-04-27T05:20:02.946Z,4.10
2023-04-27T05:22:30.646Z,3.90
2023-04-27T05:24:59.023Z,4.15
2023-04-27T05:27:28.203Z,4.15
2023-04-27T05:29:56.039Z,4.00
2023-04-27T05:32:23.875Z,5.47
2023-04-27T05:34:52.882Z,4.43
2023-04-27T05:37:20.575Z,3.67
2023-04-27T05:39:48.244Z,4.53
2023-04-27T05:42:15.986Z,3.50
2023-04-27T05:44:45.052Z,4.57
2023-04-27T05:47:12.786Z,3.78
2023-04-27T05:49:41.469Z,4.20
2023-04-27T05:52:09.180Z,4.20
2023-04-27T05:54:36.911Z,3.22
2023-04-27T05:57:04.802Z,3.80
2023-04-27T05:59:32.575Z,4.35
2023-04-27T06:02:01.712Z,3.60
2023-04-27T06:04:29.859Z,3.72
2023-04-27T06:06:58.002Z,3.97
2023-04-27T06:09:26.080Z,3.28
2023-04-27T06:11:53.762Z,4.75
2023-04-27T06:14:21.488Z,3.25
2023-04-27T06:16:49.181Z,3.65
2023-04-27T06:19:18.288Z,3.63
2023-04-27T06:21:46.448Z,3.70
2023-04-27T06:24:14.209Z,4.18
2023-04-27T06:26:41.937Z,3.50
2023-04-27T06:29:09.682Z,3.80
2023-04-27T06:31:37.494Z,3.10
2023-04-27T06:34:05.487Z,3.33
2023-04-27T06:36:34.653Z,3.25
2023-04-27T06:39:02.469Z,3.67
2023-04-27T06:41:30.198Z,3.00
2023-04-27T06:43:59.032Z,3.70
2023-04-27T06:46:27.472Z,3.72
2023-04-27T06:48:55.322Z,3.45
2023-04-27T06:51:23.023Z,3.15
2023-04-27T06:53:52.116Z,3.05
2023-04-27T06:56:19.853Z,3.75
2023-04-27T06:58:47.813Z,3.30
2023-04-27T07:01:15.562Z,3.58
2023-04-27T07:03:43.383Z,3.00
2023-04-27T07:06:11.654Z,3.20
2023-04-27T07:08:39.393Z,3.53
2023-04-27T07:11:08.484Z,3.58
2023-04-27T07:13:36.460Z,3.30
2023-04-27T07:16:04.260Z,2.85
2023-04-27T07:18:32.014Z,3.13
2023-04-27T07:20:59.749Z,3.92
2023-04-27T07:23:27.448Z,3.20
2023-04-27T07:25:55.184Z,2.83
2023-04-27T07:28:24.267Z,3.83
2023-04-27T07:30:52.120Z,2.92
2023-04-27T07:33:19.922Z,2.95
2023-04-27T07:35:47.618Z,2.90
2023-04-27T07:38:17.380Z,2.80
2023-04-27T07:40:45.387Z,2.90
2023-04-27T07:43:13.192Z,3.92
2023-04-27T07:45:42.488Z,3.28
2023-04-27T07:48:10.511Z,2.65
2023-04-27T07:50:38.275Z,3.22
2023-04-27T07:53:06.211Z,2.72
2023-04-27T07:55:33.977Z,3.28
2023-04-27T07:58:01.710Z,3.05
2023-04-27T08:00:29.483Z,3.13
2023-04-27T08:02:58.833Z,3.40
2023-04-27T08:05:27.087Z,3.55
2023-04-27T08:07:55.186Z,2.45
2023-04-27T08:10:23.471Z,3.35
2023-04-27T08:12:51.548Z,2.60
2023-04-27T08:15:19.381Z,2.65
2023-04-27T08:17:47.347Z,2.60
2023-04-27T08:20:16.800Z,3.28
2023-04-27T08:22:45.043Z,2.25
2023-04-27T08:25:12.813Z,2.33
2023-04-27T08:27:41.246Z,2.50
2023-04-27T08:30:09.976Z,2.30
2023-04-27T08:32:37.767Z,2.50
2023-04-27T08:35:06.116Z,2.13
2023-04-27T08:37:35.218Z,2.40
2023-04-27T08:40:06.127Z,2.58
2023-04-27T08:42:33.903Z,2.60
2023-04-27T08:45:01.683Z,2.42
2023-04-27T08:47:41.937Z,2.50
2023-04-27T08:50:12.377Z,2.42
2023-04-27T08:52:41.618Z,2.50
2023-04-27T08:55:10.051Z,2.38
2023-04-27T08:57:37.776Z,2.10
2023-04-27T09:00:13.362Z,2.25
2023-04-27T09:02:50.871Z,2.38
2023-04-27T09:05:19.425Z,2.40
2023-04-27T09:08:05.216Z,2.60
2023-04-27T09:10:44.960Z,3.10
2023-04-27T09:13:12.650Z,2.72
2023-04-27T09:15:47.761Z,3.08
2023-04-27T09:18:18.218Z,2.47
2023-04-27T09:20:47.258Z,3.03
2023-04-27T09:23:28.656Z,3.45
2023-04-27T09:25:57.088Z,2.40
2023-04-27T09:28:27.548Z,2.88
2023-04-27T09:30:56.467Z,2.30
2023-04-27T09:33:25.113Z,2.40
2023-04-27T09:35:53.101Z,2.35
2023-04-27T09:38:21.800Z,2.80
2023-04-27T09:40:51.942Z,2.10
2023-04-27T09:43:19.720Z,2.25
2023-04-27T09:45:47.939Z,2.17
2023-04-27T09:48:15.689Z,2.35
2023-04-27T09:50:46.960Z,2.47
2023-04-27T09:53:17.050Z,2.20
2023-04-27T09:55:56.026Z,2.30
2023-04-27T09:58:47.678Z,2.30
2023-04-27T10:01:25.400Z,2.05
2023-04-27T10:04:10.057Z,2.35
2023-04-27T10:06:59.728Z,2.30
2023-04-27T10:09:30.517Z,3.00
2023-04-27T10:12:16.044Z,2.42
2023-04-27T10:14:52.035Z,2.67
2023-04-27T10:17:20.355Z,2.00
2023-04-27T10:19:57.961Z,2.53
2023-04-27T10:22:39.269Z,2.30
2023-04-27T10:25:17.385Z,2.38
2023-04-27T10:27:50.825Z,2.58
2023-04-27T10:30:20.273Z,2.30
2023-04-27T10:32:52.585Z,2.35
2023-04-27T10:35:21.578Z,2.03
2023-04-27T10:37:49.374Z,2.30
2023-04-27T10:40:19.061Z,2.83
2023-04-27T10:42:49.621Z,3.35
2023-04-27T10:45:30.926Z,3.38
2023-04-27T10:48:01.872Z,2.70
2023-04-27T10:50:29.861Z,2.78
2023-04-27T10:53:02.554Z,2.70
2023-04-27T10:55:31.152Z,2.25
2023-04-27T10:58:01.435Z,2.13
2023-04-27T11:00:30.587Z,2.47
2023-04-27T11:03:10.674Z,2.42
2023-04-27T11:05:38.763Z,2.25
2023-04-27T11:08:08.336Z,2.00
2023-04-27T11:10:37.092Z,2.20
2023-04-27T11:13:11.380Z,2.35
2023-04-27T11:15:47.077Z,2.25
2023-04-27T11:18:15.617Z,2.95
2023-04-27T11:20:44.694Z,2.13
2023-04-27T11:23:12.801Z,2.38
2023-04-27T11:25:40.602Z,2.67
2023-04-27T11:28:19.552Z,2.72
2023-04-27T11:30:47.740Z,2.70
2023-04-27T11:33:15.947Z,2.63
2023-04-27T11:35:43.722Z,2.10
2023-04-27T11:38:17.957Z,2.65
2023-04-27T11:40:46.023Z,2.63
2023-04-27T11:43:15.327Z,2.90
2023-04-27T11:45:45.644Z,2.40
2023-04-27T11:48:16.667Z,2.75
2023-04-27T11:50:48.340Z,2.88
2023-04-27T11:53:18.568Z,3.25
2023-04-27T11:55:53.502Z,2.72
2023-04-27T11:58:22.368Z,2.50
2023-04-27T12:00:51.452Z,2.50
2023-04-27T12:03:19.455Z,3.35
2023-04-27T12:05:51.209Z,3.22
2023-04-27T12:08:19.105Z,2.45
2023-04-27T12:10:47.712Z,2.30
2023-04-27T12:13:15.472Z,2.10
2023-04-27T12:15:43.472Z,2.30
2023-04-27T12:18:12.607Z,2.10
2023-04-27T12:20:40.362Z,2.50
2023-04-27T12:23:08.059Z,2.08
2023-04-27T12:25:36.386Z,2.00
2023-04-27T12:28:04.267Z,2.10
2023-04-27T12:30:32.015Z,2.00
2023-04-27T12:33:00.823Z,2.53
2023-04-27T12:35:32.070Z,2.15
2023-04-27T12:37:59.927Z,2.05
2023-04-27T12:40:27.686Z,2.58
2023-04-27T12:42:55.452Z,1.88
2023-04-27T12:45:23.197Z,2.10
2023-04-27T12:48:01.804Z,2.10
2023-04-27T12:50:33.608Z,2.50
2023-04-27T12:53:01.362Z,2.50
2023-04-27T12:55:33.013Z,1.90
2023-04-27T12:58:02.583Z,2.20
2023-04-27T13:00:30.508Z,2.22
2023-04-27T13:02:59.084Z,2.42
2023-04-27T13:05:27.875Z,2.25
2023-04-27T13:07:58.391Z,2.08
2023-04-27T13:10:26.197Z,1.67
2023-04-27T13:12:55.395Z,2.80
2023-04-27T13:15:23.082Z,3.20
2023-04-27T13:17:53.197Z,2.88
2023-04-27T13:20:21.314Z,2.75
2023-04-27T13:22:49.104Z,2.70
2023-04-27T13:25:19.935Z,2.30
2023-04-27T13:27:47.646Z,2.42
2023-04-27T13:30:15.669Z,2.33
2023-04-27T13:32:43.389Z,2.25
2023-04-27T13:35:11.328Z,2.20
2023-04-27T13:37:40.019Z,2.15
2023-04-27T13:40:10.897Z,1.92
2023-04-27T13:42:40.870Z,2.22
2023-04-27T13:45:09.365Z,2.10
2023-04-27T13:47:37.706Z,2.00
2023-04-27T13:50:07.468Z,2.13
2023-04-27T13:52:36.019Z,2.65
2023-04-27T13:55:04.139Z,2.08
2023-04-27T13:57:32.059Z,2.20
2023-04-27T14:00:01.736Z,2.00
2023-04-27T14:02:30.953Z,2.17
2023-04-27T14:04:59.905Z,2.80
2023-04-27T14:07:27.731Z,2.92
2023-04-27T14:09:55.426Z,2.40
2023-04-27T14:12:23.148Z,2.60
2023-04-27T14:14:50.901Z,2.33
2023-04-27T14:17:20.001Z,2.10
2023-04-27T14:19:47.708Z,2.88
2023-04-27T14:22:15.808Z,2.40
2023-04-27T14:24:43.570Z,2.40
2023-04-27T14:27:11.356Z,2.35
2023-04-27T14:29:39.073Z,2.58
2023-04-27T14:32:06.906Z,2.90
2023-04-27T14:34:36.584Z,2.58
2023-04-27T14:37:04.395Z,2.22
2023-04-27T14:39:32.116Z,2.67
2023-04-27T14:41:59.873Z,3.50
2023-04-27T14:44:27.596Z,4.97
2023-04-27T14:46:55.477Z,4.90
2023-04-27T14:49:23.263Z,3.95
2023-04-27T14:51:52.327Z,3.97
2023-04-27T14:54:20.041Z,3.83
2023-04-27T14:56:47.804Z,3.80
2023-04-27T14:59:23.052Z,3.15
2023-04-27T15:01:51.085Z,3.00
2023-04-27T15:04:19.109Z,2.95
2023-04-27T15:06:46.971Z,2.80
2023-04-27T15:09:16.271Z,2.45
2023-04-27T15:11:44.090Z,3.35
2023-04-27T15:14:12.170Z,3.30
2023-04-27T15:16:39.990Z,2.60
2023-04-27T15:19:07.883Z,3.33
2023-04-27T15:21:35.705Z,3.22
2023-04-27T15:24:03.481Z,3.72
2023-04-27T15:26:32.539Z,2.95
2023-04-27T15:29:00.821Z,2.97
2023-04-27T15:31:28.547Z,3.55
2023-04-27T15:33:56.294Z,3.72
2023-04-27T15:36:26.688Z,3.42
2023-04-27T15:38:54.527Z,2.97
2023-04-27T15:41:22.225Z,2.75
2023-04-27T15:43:51.893Z,3.10
2023-04-27T15:46:19.972Z,2.40
2023-04-27T15:48:47.717Z,3.00
2023-04-27T15:51:15.448Z,2.50
2023-04-27T15:53:43.228Z,3.13
2023-04-27T15:56:10.993Z,2.70
2023-04-27T15:58:38.725Z,2.28
2023-04-27T16:01:08.547Z,2.80
2023-04-27T16:03:37.798Z,2.80
2023-04-27T16:06:06.116Z,2.17
2023-04-27T16:08:33.810Z,2.50
2023-04-27T16:11:01.775Z,2.47
2023-04-27T16:13:29.566Z,2.63
2023-04-27T16:15:57.264Z,2.50
2023-04-27T16:18:26.426Z,3.20
2023-04-27T16:20:54.150Z,2.35
2023-04-27T16:23:22.057Z,3.15
2023-04-27T16:25:49.879Z,2.53
2023-04-27T16:28:18.042Z,2.90
2023-04-27T16:30:45.974Z,2.67
2023-04-27T16:33:13.849Z,2.88
2023-04-27T16:35:43.007Z,3.00
2023-04-27T16:38:10.797Z,2.88
2023-04-27T16:40:38.522Z,2.53
2023-04-27T16:43:06.281Z,3.05
2023-04-27T16:45:35.116Z,2.67
2023-04-27T16:48:03.361Z,2.60
2023-04-27T16:50:31.648Z,2.90
2023-04-27T16:53:07.005Z,3.03
2023-04-27T16:55:35.027Z,3.00
2023-04-27T16:58:02.890Z,2.70
2023-04-27T17:00:30.652Z,3.85
2023-04-27T17:02:58.460Z,3.08
2023-04-27T17:05:26.943Z,2.50
2023-04-27T17:07:54.681Z,3.10
2023-04-27T17:10:24.078Z,2.65
2023-04-27T17:12:52.646Z,3.00
2023-04-27T17:15:20.533Z,3.08
2023-04-27T17:17:48.275Z,2.70
2023-04-27T17:20:16.008Z,2.40
2023-04-27T17:22:43.720Z,2.58
2023-04-27T17:25:11.596Z,2.72
2023-04-27T17:27:40.879Z,3.10
2023-04-27T17:30:09.619Z,2.80
2023-04-27T17:32:37.412Z,2.60
2023-04-27T17:35:05.591Z,2.80
2023-04-27T17:37:33.299Z,2.60
2023-04-27T17:40:01.019Z,2.72
2023-04-27T17:42:28.728Z,2.97
2023-04-27T17:44:57.804Z,2.72
2023-04-27T17:47:25.753Z,3.17
2023-04-27T17:49:53.458Z,2.35
2023-04-27T17:52:21.133Z,3.05
2023-04-27T17:54:49.244Z,2.65
2023-04-27T17:57:17.001Z,2.72
2023-04-27T17:59:45.019Z,3.60
2023-04-27T18:02:14.160Z,3.10
2023-04-27T18:04:41.942Z,2.72
2023-04-27T18:07:09.757Z,2.58
2023-04-27T18:09:37.630Z,3.13
2023-04-27T18:12:10.799Z,3.03
2023-04-27T18:14:38.816Z,2.88
2023-04-27T18:17:06.807Z,3.80
2023-04-27T18:19:36.051Z,3.20
2023-04-27T18:22:03.791Z,2.70
2023-04-27T18:24:31.443Z,2.53
2023-04-27T18:27:00.025Z,3.58
2023-04-27T18:29:27.752Z,3.38
2023-04-27T18:31:56.923Z,3.00
2023-04-27T18:34:24.807Z,3.42
2023-04-27T18:36:53.890Z,3.03
2023-04-27T18:39:22.088Z,3.17
2023-04-27T18:41:49.829Z,3.13
2023-04-27T18:44:17.775Z,3.35
2023-04-27T18:46:46.163Z,3.10
2023-04-27T18:49:14.159Z,3.35
2023-04-27T18:51:42.009Z,3.55
2023-04-27T18:54:11.143Z,3.20
2023-04-27T18:56:38.894Z,2.97
2023-04-27T18:59:06.653Z,3.25
2023-04-27T19:01:34.454Z,3.20
2023-04-27T19:04:02.555Z,4.10
2023-04-27T19:06:31.304Z,3.72
2023-04-27T19:08:59.061Z,3.17
2023-04-27T19:11:28.847Z,3.30
2023-04-27T19:13:57.446Z,3.72
2023-04-27T19:16:25.398Z,3.42
2023-04-27T19:18:53.244Z,3.67
2023-04-27T19:21:21.070Z,3.63
2023-04-27T19:23:48.774Z,4.63
2023-04-27T19:26:16.521Z,3.30
2023-04-27T19:28:45.609Z,3.30
2023-04-27T19:31:13.398Z,3.60
2023-04-27T19:33:46.661Z,3.53
2023-04-27T19:36:15.039Z,3.60
2023-04-27T19:38:42.784Z,3.33
2023-04-27T19:41:10.694Z,3.88
2023-04-27T19:43:38.424Z,4.00
2023-04-27T19:46:07.556Z,4.32
2023-04-27T19:48:35.351Z,4.32
2023-04-27T19:51:03.122Z,3.65
2023-04-27T19:53:30.857Z,4.07
2023-04-27T19:56:00.682Z,4.00
2023-04-27T19:58:28.658Z,3.60
2023-04-27T20:00:56.367Z,4.72
2023-04-27T20:03:25.590Z,3.78
2023-04-27T20:05:53.664Z,3.50
2023-04-27T20:08:21.627Z,3.85
2023-04-27T20:10:49.438Z,3.38
2023-04-27T20:13:17.265Z,3.70
2023-04-27T20:15:45.087Z,3.75
2023-04-27T20:18:13.068Z,3.28
2023-04-27T20:20:42.872Z,3.22
2023-04-27T20:23:10.630Z,3.92
2023-04-27T20:25:38.354Z,3.40
2023-04-27T20:28:06.285Z,3.30
2023-04-27T20:30:33.981Z,3.67
2023-04-27T20:33:03.754Z,3.33
2023-04-27T20:35:32.204Z,3.55
2023-04-27T20:38:01.952Z,3.70
2023-04-27T20:40:29.783Z,4.05
2023-04-27T20:42:57.507Z,3.63
2023-04-27T20:45:25.424Z,3.80
2023-04-27T20:47:53.262Z,3.42
2023-04-27T20:50:21.105Z,3.67
2023-04-27T20:52:48.811Z,4.10
2023-04-27T20:55:17.854Z,3.92
2023-04-27T20:57:45.673Z,3.90
2023-04-27T21:00:15.396Z,3.95
2023-04-27T21:02:43.238Z,2.95
2023-04-27T21:05:11.508Z,3.40
2023-04-27T21:07:39.269Z,4.10
2023-04-27T21:10:08.298Z,3.45
2023-04-27T21:12:37.342Z,3.47
2023-04-27T21:15:05.524Z,3.28
2023-04-27T21:17:33.368Z,3.30
2023-04-27T21:20:01.164Z,4.03
2023-04-27T21:22:28.958Z,3.65
2023-04-27T21:24:56.646Z,3.25
2023-04-27T21:27:25.057Z,3.28
2023-04-27T21:29:54.299Z,3.60
2023-04-27T21:32:22.017Z,3.55
2023-04-27T21:34:49.746Z,3.53
2023-04-27T21:37:17.444Z,3.75
2023-04-27T21:39:45.209Z,3.42
2023-04-27T21:42:12.887Z,3.40
2023-04-27T21:44:40.534Z,3.75
2023-04-27T21:47:09.659Z,3.83
2023-04-27T21:49:37.391Z,4.15
2023-04-27T21:52:05.448Z,4.22
2023-04-27T21:54:33.192Z,3.45
2023-04-27T21:57:00.893Z,3.47
2023-04-27T21:59:28.628Z,3.72
2023-04-27T22:01:56.631Z,3.72
2023-04-27T22:04:26.153Z,3.80
2023-04-27T22:06:54.295Z,3.40
2023-04-27T22:09:21.999Z,3.47
2023-04-27T22:11:49.728Z,3.25
2023-04-27T22:14:17.630Z,4.05
2023-04-27T22:16:45.442Z,3.22
2023-04-27T22:19:13.260Z,3.80
2023-04-27T22:21:42.349Z,3.88
2023-04-27T22:24:10.066Z,4.03
2023-04-27T22:26:37.817Z,3.42
2023-04-27T22:29:05.523Z,4.63
2023-04-27T22:31:33.453Z,3.80
2023-04-27T22:34:01.281Z,4.10
2023-04-27T22:36:29.145Z,4.20
2023-04-27T22:38:58.297Z,4.10
2023-04-27T22:41:26.193Z,4.20
2023-04-27T22:43:53.944Z,4.03
2023-04-27T22:46:23.156Z,4.13
2023-04-27T22:48:52.964Z,4.10
2023-04-27T22:51:21.798Z,4.00
2023-04-27T22:53:49.760Z,4.15
2023-04-27T22:56:18.854Z,4.65
2023-04-27T22:58:46.848Z,4.47
2023-04-27T23:01:14.665Z,4.28
2023-04-27T23:03:42.581Z,4.60
2023-04-27T23:06:14.272Z,4.22
2023-04-27T23:08:44.752Z,4.22
2023-04-27T23:11:15.429Z,3.72
2023-04-27T23:13:44.573Z,4.95
2023-04-27T23:16:14.718Z,3.97
2023-04-27T23:18:42.790Z,4.32
2023-04-27T23:21:11.616Z,4.82
2023-04-27T23:23:39.385Z,4.20
2023-04-27T23:26:14.110Z,4.35
2023-04-27T23:28:41.992Z,4.88
2023-04-27T23:31:11.745Z,4.47
2023-04-27T23:33:39.535Z,3.47
2023-04-27T23:36:07.820Z,4.28
2023-04-27T23:38:35.531Z,4.22
2023-04-27T23:41:03.295Z,3.97
2023-04-27T23:43:31.692Z,4.28
2023-04-27T23:45:59.427Z,4.90
2023-04-27T23:48:28.544Z,4.95
2023-04-27T23:51:02.808Z,3.90
2023-04-27T23:53:31.496Z,4.53
2023-04-27T23:55:59.229Z,4.85
2023-04-27T23:58:27.338Z,4.65
